createdAt,value
2018-02-23T00:00:20.763Z,49.57
2018-02-23T00:00:52.400Z,49.68
2018-02-23T00:01:24.040Z,49.46
2018-02-23T00:01:55.708Z,49.42
2018-02-23T00:02:27.368Z,49.87
2018-02-23T00:02:59.011Z,49.13
2018-02-23T00:03:30.695Z,49.32
2018-02-23T00:04:02.352Z,49.25
2018-02-23T00:04:34.020Z,49.31
2018-02-23T00:05:05.660Z,49.41
2018-02-23T00:05:37.300Z,49.69
2018-02-23T00:06:08.944Z,49.73
2018-02-23T00:06:40.575Z,49.84
2018-02-23T00:07:12.276Z,49.80
2018-02-23T00:07:43.915Z,50.02
2018-02-23T00:08:15.556Z,49.95
2018-02-23T00:08:47.237Z,49.86
2018-02-23T00:09:18.876Z,50.04
2018-02-23T00:09:50.524Z,50.13
2018-02-23T00:10:22.164Z,50.14
2018-02-23T00:10:53.804Z,50.14
2018-02-23T00:11:25.430Z,50.06
2018-02-23T00:11:57.069Z,50.30
2018-02-23T00:12:28.702Z,50.28
2018-02-23T00:13:00.329Z,50.34
2018-02-23T00:13:31.968Z,50.31
2018-02-23T00:14:03.650Z,50.49
2018-02-23T00:14:35.287Z,50.66
2018-02-23T00:15:06.922Z,50.74
2018-02-23T00:15:38.554Z,50.64
2018-02-23T00:16:10.182Z,50.75
2018-02-23T00:16:41.827Z,50.79
2018-02-23T00:17:13.474Z,50.74
2018-02-23T00:17:45.102Z,50.83
2018-02-23T00:18:16.745Z,50.74
2018-02-23T00:18:48.379Z,50.94
2018-02-23T00:19:20.080Z,50.85
2018-02-23T00:19:51.721Z,50.83
2018-02-23T00:20:23.354Z,50.68
2018-02-23T00:20:54.992Z,50.55
2018-02-23T00:21:26.627Z,50.70
2018-02-23T00:21:58.264Z,50.55
2018-02-23T00:22:29.898Z,50.55
2018-02-23T00:23:01.530Z,50.44
2018-02-23T00:23:33.175Z,50.29
2018-02-23T00:24:04.816Z,50.50
2018-02-23T00:24:36.504Z,50.35
2018-02-23T00:25:08.148Z,50.45
2018-02-23T00:25:39.793Z,50.54
2018-02-23T00:26:11.476Z,50.33
2018-02-23T00:26:43.090Z,50.28
2018-02-23T00:27:14.732Z,50.21
2018-02-23T00:27:46.358Z,50.18
2018-02-23T00:28:17.997Z,49.99
2018-02-23T00:28:49.634Z,49.92
2018-02-23T00:29:21.262Z,49.93
2018-02-23T00:29:52.952Z,49.87
2018-02-23T00:30:24.601Z,49.86
2018-02-23T00:30:56.240Z,49.83
2018-02-23T00:31:27.870Z,49.68
2018-02-23T00:31:59.494Z,49.65
2018-02-23T00:32:31.132Z,49.66
2018-02-23T00:33:02.762Z,49.59
2018-02-23T00:33:34.404Z,49.53
2018-02-23T00:34:06.039Z,49.67
2018-02-23T00:34:37.679Z,49.54
2018-02-23T00:35:09.374Z,49.59
2018-02-23T00:35:41.020Z,49.63
2018-02-23T00:36:12.651Z,49.71
2018-02-23T00:36:44.304Z,49.64
2018-02-23T00:37:15.934Z,49.56
2018-02-23T00:37:47.576Z,49.57
2018-02-23T00:38:19.216Z,49.61
2018-02-23T00:38:50.856Z,49.58
2018-02-23T00:39:22.487Z,49.63
2018-02-23T00:39:54.130Z,49.86
2018-02-23T00:40:25.835Z,49.56
2018-02-23T00:40:57.465Z,49.58
2018-02-23T00:41:29.108Z,49.68
2018-02-23T00:42:00.738Z,49.55
2018-02-23T00:42:32.370Z,49.81
2018-02-23T00:43:03.998Z,49.77
2018-02-23T00:43:35.628Z,49.60
2018-02-23T00:44:07.262Z,49.78
2018-02-23T00:44:38.905Z,49.91
2018-02-23T00:45:10.533Z,49.89
2018-02-23T00:45:42.226Z,49.81
2018-02-23T00:46:13.858Z,49.76
2018-02-23T00:46:45.500Z,49.86
2018-02-23T00:47:17.144Z,49.93
2018-02-23T00:47:48.894Z,49.96
2018-02-23T00:48:20.537Z,50.30
2018-02-23T00:48:52.177Z,50.19
2018-02-23T00:49:23.816Z,50.09
2018-02-23T00:49:55.442Z,50.16
2018-02-23T00:50:27.066Z,50.49
2018-02-23T00:50:58.760Z,50.93
2018-02-23T00:51:30.404Z,50.97
2018-02-23T00:52:02.044Z,50.68
2018-02-23T00:52:33.676Z,50.69
2018-02-23T00:53:05.312Z,50.91
2018-02-23T00:53:36.952Z,50.70
2018-02-23T00:54:08.584Z,50.80
2018-02-23T00:54:40.206Z,50.95
2018-02-23T00:55:11.835Z,50.88
2018-02-23T00:55:43.462Z,51.04
2018-02-23T00:56:15.138Z,51.02
2018-02-23T00:56:46.762Z,51.13
2018-02-23T00:57:18.395Z,51.18
2018-02-23T00:57:50.022Z,51.21
2018-02-23T00:58:21.654Z,51.09
2018-02-23T00:58:53.286Z,51.42
2018-02-23T00:59:24.909Z,51.43
2018-02-23T00:59:56.538Z,51.29
2018-02-23T01:00:28.166Z,51.30
2018-02-23T01:00:59.795Z,51.46
2018-02-23T01:01:31.479Z,51.46
2018-02-23T01:02:03.105Z,51.50
2018-02-23T01:02:34.732Z,51.68
2018-02-23T01:03:06.354Z,51.39
2018-02-23T01:03:37.981Z,51.51
2018-02-23T01:04:09.614Z,51.59
2018-02-23T01:04:41.246Z,51.52
2018-02-23T01:05:12.870Z,51.68
2018-02-23T01:05:44.502Z,51.76
2018-02-23T01:06:16.131Z,51.78
2018-02-23T01:06:47.811Z,51.78
2018-02-23T01:07:19.438Z,51.92
2018-02-23T01:07:51.062Z,51.81
2018-02-23T01:08:22.694Z,51.81
2018-02-23T01:08:54.322Z,51.86
2018-02-23T01:09:25.950Z,52.06
2018-02-23T01:09:57.583Z,52.02
2018-02-23T01:10:29.206Z,52.26
2018-02-23T01:11:00.834Z,52.17
2018-02-23T01:11:32.459Z,52.26
2018-02-23T01:12:04.144Z,52.47
2018-02-23T01:12:35.765Z,52.39
2018-02-23T01:13:07.389Z,52.40
2018-02-23T01:13:39.010Z,52.59
2018-02-23T01:14:10.635Z,52.81
2018-02-23T01:14:42.257Z,52.56
2018-02-23T01:15:13.886Z,52.58
2018-02-23T01:15:45.511Z,52.66
2018-02-23T01:16:17.142Z,52.66
2018-02-23T01:16:48.766Z,52.62
2018-02-23T01:17:20.442Z,52.58
2018-02-23T01:17:52.087Z,52.69
2018-02-23T01:18:23.710Z,52.66
2018-02-23T01:18:55.338Z,52.57
2018-02-23T01:19:26.970Z,52.51
2018-02-23T01:19:58.594Z,52.53
2018-02-23T01:20:30.217Z,52.71
2018-02-23T01:21:01.843Z,52.66
2018-02-23T01:21:33.485Z,52.57
2018-02-23T01:22:05.134Z,52.87
2018-02-23T01:22:36.809Z,52.63
2018-02-23T01:23:08.438Z,52.73
2018-02-23T01:23:40.062Z,52.65
2018-02-23T01:24:11.685Z,52.64
2018-02-23T01:24:43.314Z,52.68
2018-02-23T01:25:14.937Z,52.77
2018-02-23T01:25:46.562Z,52.92
2018-02-23T01:26:18.190Z,52.73
2018-02-23T01:26:49.826Z,52.83
2018-02-23T01:27:21.450Z,52.90
2018-02-23T01:27:53.134Z,52.88
2018-02-23T01:28:24.778Z,53.00
2018-02-23T01:28:56.412Z,53.05
2018-02-23T01:29:28.044Z,52.92
2018-02-23T01:29:59.673Z,52.94
2018-02-23T01:30:31.302Z,52.92
2018-02-23T01:31:03.242Z,53.17
2018-02-23T01:31:34.870Z,52.88
2018-02-23T01:32:06.494Z,53.05
2018-02-23T01:32:38.123Z,53.14
2018-02-23T01:33:09.749Z,53.20
2018-02-23T01:33:41.378Z,53.18
2018-02-23T01:34:13.002Z,53.04
2018-02-23T01:34:44.630Z,53.00
2018-02-23T01:35:16.257Z,53.38
2018-02-23T01:35:47.882Z,53.32
2018-02-23T01:36:19.518Z,53.33
2018-02-23T01:36:51.146Z,53.22
2018-02-23T01:37:22.774Z,53.30
2018-02-23T01:37:54.446Z,53.72
2018-02-23T01:38:26.075Z,53.45
2018-02-23T01:38:57.699Z,53.61
2018-02-23T01:39:29.332Z,53.88
2018-02-23T01:40:00.967Z,53.70
2018-02-23T01:40:32.598Z,53.95
2018-02-23T01:41:04.226Z,53.94
2018-02-23T01:41:35.849Z,54.05
2018-02-23T01:42:07.479Z,54.00
2018-02-23T01:42:39.110Z,54.21
2018-02-23T01:43:10.781Z,54.23
2018-02-23T01:43:42.414Z,54.19
2018-02-23T01:44:14.043Z,54.38
2018-02-23T01:44:45.666Z,54.27
2018-02-23T01:45:17.294Z,54.06
2018-02-23T01:45:48.922Z,54.09
2018-02-23T01:46:20.554Z,54.45
2018-02-23T01:46:52.178Z,54.22
2018-02-23T01:47:23.810Z,54.20
2018-02-23T01:47:55.434Z,54.37
2018-02-23T01:48:27.114Z,54.16
2018-02-23T01:48:58.738Z,54.54
2018-02-23T01:49:30.367Z,54.46
2018-02-23T01:50:01.990Z,54.50
2018-02-23T01:50:33.619Z,54.40
2018-02-23T01:51:05.246Z,54.82
2018-02-23T01:51:36.875Z,54.63
2018-02-23T01:52:08.502Z,55.03
2018-02-23T01:52:40.151Z,54.60
2018-02-23T01:53:11.782Z,54.09
2018-02-23T01:53:43.454Z,54.10
2018-02-23T01:54:15.082Z,53.88
2018-02-23T01:54:46.722Z,53.88
2018-02-23T01:55:18.362Z,53.80
2018-02-23T01:55:49.993Z,53.87
2018-02-23T01:56:21.617Z,53.51
2018-02-23T01:56:53.246Z,53.75
2018-02-23T01:57:24.870Z,53.55
2018-02-23T01:57:56.510Z,53.34
2018-02-23T01:58:28.159Z,53.42
2018-02-23T01:58:59.834Z,53.45
2018-02-23T01:59:31.462Z,53.22
2018-02-23T02:00:03.103Z,53.33
2018-02-23T02:00:34.746Z,53.71
2018-02-23T02:01:06.383Z,53.45
2018-02-23T02:01:38.010Z,53.46
2018-02-23T02:02:09.635Z,53.24
2018-02-23T02:02:41.259Z,53.69
2018-02-23T02:03:12.883Z,53.27
2018-02-23T02:03:44.507Z,53.43
2018-02-23T02:04:16.199Z,53.57
2018-02-23T02:04:47.836Z,53.49
2018-02-23T02:05:19.466Z,53.36
2018-02-23T02:05:51.089Z,53.28
2018-02-23T02:06:22.714Z,53.57
2018-02-23T02:06:54.338Z,53.84
2018-02-23T02:07:25.962Z,53.33
2018-02-23T02:07:57.586Z,53.36
2018-02-23T02:08:29.210Z,53.54
2018-02-23T02:09:00.842Z,53.41
2018-02-23T02:09:32.513Z,53.38
2018-02-23T02:10:04.147Z,53.32
2018-02-23T02:10:35.789Z,53.50
2018-02-23T02:11:07.418Z,53.58
2018-02-23T02:11:39.042Z,53.47
2018-02-23T02:12:10.675Z,53.88
2018-02-23T02:12:42.302Z,54.06
2018-02-23T02:13:13.926Z,54.02
2018-02-23T02:13:45.550Z,54.59
2018-02-23T02:14:17.174Z,54.22
2018-02-23T02:14:48.798Z,54.26
2018-02-23T02:15:20.421Z,54.44
2018-02-23T02:15:52.041Z,54.04
2018-02-23T02:16:23.671Z,53.93
2018-02-23T02:16:55.296Z,53.98
2018-02-23T02:17:26.923Z,53.68
2018-02-23T02:17:58.546Z,54.02
2018-02-23T02:18:30.169Z,53.64
2018-02-23T02:19:01.798Z,54.08
2018-02-23T02:19:33.422Z,53.76
2018-02-23T02:20:05.097Z,53.75
2018-02-23T02:20:36.722Z,53.89
2018-02-23T02:21:08.350Z,53.92
2018-02-23T02:21:39.978Z,54.15
2018-02-23T02:22:11.602Z,54.09
2018-02-23T02:22:43.230Z,54.39
2018-02-23T02:23:14.858Z,54.14
2018-02-23T02:23:46.481Z,53.90
2018-02-23T02:24:18.110Z,54.35
2018-02-23T02:24:49.738Z,54.49
2018-02-23T02:25:21.410Z,54.57
2018-02-23T02:25:53.038Z,54.54
2018-02-23T02:26:24.667Z,54.63
2018-02-23T02:26:56.298Z,54.55
2018-02-23T02:27:27.927Z,54.38
2018-02-23T02:27:59.550Z,54.57
2018-02-23T02:28:31.179Z,54.45
2018-02-23T02:29:02.823Z,54.75
2018-02-23T02:29:34.461Z,54.61
2018-02-23T02:30:06.087Z,54.83
2018-02-23T02:30:37.770Z,54.67
2018-02-23T02:31:09.399Z,54.75
2018-02-23T02:31:41.026Z,54.89
2018-02-23T02:32:12.655Z,54.63
2018-02-23T02:32:44.292Z,54.80
2018-02-23T02:33:15.923Z,54.76
2018-02-23T02:33:47.561Z,54.81
2018-02-23T02:34:19.210Z,54.70
2018-02-23T02:34:50.834Z,54.78
2018-02-23T02:35:22.462Z,54.58
2018-02-23T02:35:54.131Z,54.93
2018-02-23T02:36:25.790Z,54.93
2018-02-23T02:36:57.414Z,54.80
2018-02-23T02:37:29.038Z,54.98
2018-02-23T02:38:00.666Z,54.89
2018-02-23T02:38:32.314Z,54.82
2018-02-23T02:39:03.947Z,54.96
2018-02-23T02:39:35.575Z,54.53
2018-02-23T02:40:07.219Z,54.57
2018-02-23T02:40:38.842Z,54.80
2018-02-23T02:41:10.532Z,54.53
2018-02-23T02:41:42.184Z,54.83
2018-02-23T02:42:13.834Z,54.85
2018-02-23T02:42:45.460Z,54.97
2018-02-23T02:43:17.082Z,55.02
2018-02-23T02:43:48.710Z,55.02
2018-02-23T02:44:20.362Z,54.84
2018-02-23T02:44:52.004Z,55.08
2018-02-23T02:45:23.634Z,55.01
2018-02-23T02:45:55.258Z,54.77
2018-02-23T02:46:26.932Z,54.90
2018-02-23T02:46:58.568Z,55.18
2018-02-23T02:47:30.190Z,55.10
2018-02-23T02:48:01.819Z,55.24
2018-02-23T02:48:33.463Z,55.16
2018-02-23T02:49:05.091Z,55.20
2018-02-23T02:49:36.727Z,55.33
2018-02-23T02:50:08.349Z,55.35
2018-02-23T02:50:39.974Z,55.43
2018-02-23T02:51:11.610Z,55.59
2018-02-23T02:51:43.287Z,55.48
2018-02-23T02:52:14.918Z,55.64
2018-02-23T02:52:46.542Z,55.64
2018-02-23T02:53:18.166Z,55.61
2018-02-23T02:53:49.811Z,55.77
2018-02-23T02:54:21.440Z,55.81
2018-02-23T02:54:53.074Z,56.02
2018-02-23T02:55:24.706Z,55.95
2018-02-23T02:55:56.331Z,56.11
2018-02-23T02:56:27.955Z,56.08
2018-02-23T02:56:59.630Z,56.03
2018-02-23T02:57:31.258Z,56.03
2018-02-23T02:58:02.882Z,56.18
2018-02-23T02:58:34.511Z,56.19
2018-02-23T02:59:06.140Z,56.28
2018-02-23T02:59:37.777Z,56.34
2018-02-23T03:00:09.402Z,56.09
2018-02-23T03:00:41.022Z,56.17
2018-02-23T03:01:12.646Z,56.41
2018-02-23T03:01:44.270Z,56.32
2018-02-23T03:02:15.943Z,56.47
2018-02-23T03:02:47.566Z,56.37
2018-02-23T03:03:19.194Z,56.42
2018-02-23T03:03:50.826Z,56.40
2018-02-23T03:04:22.450Z,56.33
2018-02-23T03:04:54.073Z,56.41
2018-02-23T03:05:25.704Z,56.42
2018-02-23T03:05:57.334Z,56.23
2018-02-23T03:06:28.958Z,56.20
2018-02-23T03:07:00.583Z,56.37
2018-02-23T03:07:32.264Z,56.27
2018-02-23T03:08:03.903Z,56.44
2018-02-23T03:08:35.534Z,56.44
2018-02-23T03:09:07.163Z,56.33
2018-02-23T03:09:38.792Z,56.35
2018-02-23T03:10:10.418Z,56.15
2018-02-23T03:10:42.047Z,56.12
2018-02-23T03:11:13.670Z,56.09
2018-02-23T03:11:45.298Z,56.12
2018-02-23T03:12:16.922Z,56.00
2018-02-23T03:12:48.602Z,55.90
2018-02-23T03:13:20.231Z,55.78
2018-02-23T03:13:51.862Z,55.72
2018-02-23T03:14:23.490Z,55.80
2018-02-23T03:14:55.117Z,55.95
2018-02-23T03:15:26.742Z,55.93
2018-02-23T03:15:58.366Z,56.08
2018-02-23T03:16:29.994Z,55.99
2018-02-23T03:17:01.619Z,55.93
2018-02-23T03:17:33.242Z,56.19
2018-02-23T03:18:04.918Z,55.86
2018-02-23T03:18:36.538Z,55.74
2018-02-23T03:19:08.170Z,55.78
2018-02-23T03:19:39.799Z,55.79
2018-02-23T03:20:11.426Z,55.51
2018-02-23T03:20:43.050Z,55.47
2018-02-23T03:21:14.678Z,55.44
2018-02-23T03:21:46.310Z,55.29
2018-02-23T03:22:17.934Z,55.42
2018-02-23T03:22:49.562Z,55.33
2018-02-23T03:23:21.234Z,55.29
2018-02-23T03:23:52.857Z,55.30
2018-02-23T03:24:24.487Z,55.72
2018-02-23T03:24:56.115Z,55.57
2018-02-23T03:25:27.747Z,55.67
2018-02-23T03:25:59.370Z,55.53
2018-02-23T03:26:30.993Z,55.38
2018-02-23T03:27:02.618Z,55.42
2018-02-23T03:27:34.242Z,55.34
2018-02-23T03:28:05.865Z,55.28
2018-02-23T03:28:37.553Z,55.26
2018-02-23T03:29:09.182Z,55.13
2018-02-23T03:29:40.805Z,55.12
2018-02-23T03:30:12.426Z,55.09
2018-02-23T03:30:44.054Z,54.85
2018-02-23T03:31:15.688Z,54.94
2018-02-23T03:31:47.310Z,54.71
2018-02-23T03:32:18.939Z,54.61
2018-02-23T03:32:50.567Z,54.72
2018-02-23T03:33:22.200Z,54.59
2018-02-23T03:33:53.822Z,54.52
2018-02-23T03:34:25.450Z,54.45
2018-02-23T03:34:57.073Z,54.38
2018-02-23T03:35:28.698Z,54.22
2018-02-23T03:36:00.326Z,54.15
2018-02-23T03:36:31.959Z,54.13
2018-02-23T03:37:03.589Z,54.23
2018-02-23T03:37:35.213Z,54.27
2018-02-23T03:38:06.842Z,54.29
2018-02-23T03:38:38.526Z,54.23
2018-02-23T03:39:10.154Z,54.22
2018-02-23T03:39:41.782Z,54.23
2018-02-23T03:40:13.409Z,54.42
2018-02-23T03:40:45.038Z,54.04
2018-02-23T03:41:16.671Z,54.07
2018-02-23T03:41:48.294Z,54.28
2018-02-23T03:42:19.920Z,54.13
2018-02-23T03:42:51.550Z,54.06
2018-02-23T03:43:23.179Z,54.11
2018-02-23T03:43:54.850Z,53.90
2018-02-23T03:44:26.474Z,53.97
2018-02-23T03:44:58.104Z,53.95
2018-02-23T03:45:29.729Z,53.86
2018-02-23T03:46:01.362Z,53.86
2018-02-23T03:46:32.991Z,53.85
2018-02-23T03:47:04.614Z,53.83
2018-02-23T03:47:36.243Z,53.87
2018-02-23T03:48:07.870Z,53.92
2018-02-23T03:48:39.493Z,53.65
2018-02-23T03:49:11.175Z,53.61
2018-02-23T03:49:42.803Z,53.89
2018-02-23T03:50:14.427Z,53.75
2018-02-23T03:50:46.054Z,53.76
2018-02-23T03:51:17.685Z,54.00
2018-02-23T03:51:49.312Z,53.76
2018-02-23T03:52:20.934Z,53.90
2018-02-23T03:52:52.562Z,53.84
2018-02-23T03:53:24.199Z,54.11
2018-02-23T03:53:55.823Z,53.84
2018-02-23T03:54:27.503Z,53.98
2018-02-23T03:54:59.136Z,54.05
2018-02-23T03:55:30.770Z,54.12
2018-02-23T03:56:02.398Z,54.06
2018-02-23T03:56:34.030Z,54.02
2018-02-23T03:57:05.658Z,54.05
2018-02-23T03:57:37.286Z,54.05
2018-02-23T03:58:08.910Z,54.08
2018-02-23T03:58:40.533Z,54.04
2018-02-23T03:59:12.162Z,54.21
2018-02-23T03:59:43.837Z,54.28
2018-02-23T04:00:15.466Z,54.19
2018-02-23T04:00:47.095Z,54.16
2018-02-23T04:01:18.722Z,54.21
2018-02-23T04:01:50.346Z,54.52
2018-02-23T04:02:21.970Z,54.39
2018-02-23T04:02:53.598Z,54.44
2018-02-23T04:03:25.222Z,54.53
2018-02-23T04:03:56.847Z,54.68
2018-02-23T04:04:28.474Z,54.75
2018-02-23T04:05:00.151Z,54.70
2018-02-23T04:05:31.782Z,54.65
2018-02-23T04:06:03.410Z,54.66
2018-02-23T04:06:35.035Z,54.74
2018-02-23T04:07:06.675Z,54.88
2018-02-23T04:07:38.301Z,54.88
2018-02-23T04:08:09.927Z,55.19
2018-02-23T04:08:41.551Z,55.32
2018-02-23T04:09:13.178Z,55.37
2018-02-23T04:09:44.814Z,56.06
2018-02-23T04:10:16.490Z,55.92
2018-02-23T04:10:48.117Z,55.82
2018-02-23T04:11:19.742Z,55.94
2018-02-23T04:11:51.367Z,56.05
2018-02-23T04:12:22.994Z,56.27
2018-02-23T04:12:54.621Z,56.39
2018-02-23T04:13:26.250Z,56.41
2018-02-23T04:13:57.874Z,56.45
2018-02-23T04:14:29.502Z,56.65
2018-02-23T04:15:01.126Z,56.50
2018-02-23T04:15:32.750Z,56.61
2018-02-23T04:16:04.374Z,56.64
2018-02-23T04:16:36.002Z,56.88
2018-02-23T04:17:07.630Z,57.11
2018-02-23T04:17:39.260Z,57.12
2018-02-23T04:18:10.882Z,57.20
2018-02-23T04:18:42.513Z,57.16
2018-02-23T04:19:14.138Z,57.27
2018-02-23T04:19:45.763Z,57.33
2018-02-23T04:20:17.385Z,57.36
2018-02-23T04:20:49.070Z,57.35
2018-02-23T04:21:20.698Z,57.62
2018-02-23T04:21:52.318Z,57.51
2018-02-23T04:22:23.946Z,57.42
2018-02-23T04:22:55.570Z,57.55
2018-02-23T04:23:27.213Z,57.72
2018-02-23T04:23:58.839Z,57.88
2018-02-23T04:24:30.470Z,57.93
2018-02-23T04:25:02.103Z,57.96
2018-02-23T04:25:33.726Z,57.91
2018-02-23T04:26:05.397Z,58.05
2018-02-23T04:26:37.018Z,58.13
2018-02-23T04:27:08.641Z,58.10
2018-02-23T04:27:40.262Z,58.14
2018-02-23T04:28:11.885Z,58.63
2018-02-23T04:28:43.506Z,58.65
2018-02-23T04:29:15.130Z,58.45
2018-02-23T04:29:46.755Z,58.51
2018-02-23T04:30:18.379Z,58.53
2018-02-23T04:30:50.006Z,58.43
2018-02-23T04:31:21.686Z,58.67
2018-02-23T04:31:53.318Z,58.46
2018-02-23T04:32:24.942Z,58.50
2018-02-23T04:32:56.574Z,58.52
2018-02-23T04:33:28.201Z,58.69
2018-02-23T04:33:59.829Z,58.70
2018-02-23T04:34:31.450Z,58.51
2018-02-23T04:35:03.078Z,58.47
2018-02-23T04:35:34.706Z,58.53
2018-02-23T04:36:06.330Z,58.47
2018-02-23T04:36:38.018Z,58.47
2018-02-23T04:37:09.645Z,58.54
2018-02-23T04:37:41.274Z,58.55
2018-02-23T04:38:12.898Z,58.55
2018-02-23T04:38:44.525Z,58.64
2018-02-23T04:39:16.158Z,58.60
2018-02-23T04:39:47.806Z,58.54
2018-02-23T04:40:19.434Z,58.63
2018-02-23T04:40:51.062Z,58.41
2018-02-23T04:41:22.686Z,58.47
2018-02-23T04:41:54.358Z,58.33
2018-02-23T04:42:25.981Z,58.19
2018-02-23T04:42:57.601Z,58.19
2018-02-23T04:43:29.226Z,57.93
2018-02-23T04:44:00.850Z,57.88
2018-02-23T04:44:32.474Z,57.76
2018-02-23T04:45:04.098Z,57.44
2018-02-23T04:45:35.726Z,57.25
2018-02-23T04:46:07.350Z,57.03
2018-02-23T04:46:38.978Z,56.97
2018-02-23T04:47:10.670Z,56.91
2018-02-23T04:47:42.292Z,56.85
2018-02-23T04:48:13.917Z,56.65
2018-02-23T04:48:45.547Z,56.68
2018-02-23T04:49:17.170Z,56.81
2018-02-23T04:49:48.798Z,56.53
2018-02-23T04:50:20.418Z,56.36
2018-02-23T04:50:52.038Z,56.30
2018-02-23T04:51:23.662Z,56.20
2018-02-23T04:51:55.290Z,56.14
2018-02-23T04:52:26.977Z,56.23
2018-02-23T04:52:58.602Z,55.98
2018-02-23T04:53:30.235Z,55.81
2018-02-23T04:54:01.857Z,55.74
2018-02-23T04:54:33.482Z,55.81
2018-02-23T04:55:05.109Z,55.54
2018-02-23T04:55:36.738Z,55.54
2018-02-23T04:56:08.366Z,55.59
2018-02-23T04:56:39.990Z,55.37
2018-02-23T04:57:11.614Z,55.34
2018-02-23T04:57:43.286Z,55.30
2018-02-23T04:58:14.909Z,55.12
2018-02-23T04:58:46.533Z,54.97
2018-02-23T04:59:18.162Z,54.96
2018-02-23T04:59:49.785Z,54.68
2018-02-23T05:00:21.422Z,54.67
2018-02-23T05:00:53.059Z,54.68
2018-02-23T05:01:24.686Z,54.58
2018-02-23T05:01:56.321Z,54.91
2018-02-23T05:02:27.978Z,54.66
2018-02-23T05:02:59.658Z,54.50
2018-02-23T05:03:31.286Z,54.47
2018-02-23T05:04:02.910Z,54.58
2018-02-23T05:04:34.538Z,54.50
2018-02-23T05:05:06.163Z,54.45
2018-02-23T05:05:37.806Z,54.51
2018-02-23T05:06:09.434Z,54.57
2018-02-23T05:06:41.074Z,54.42
2018-02-23T05:07:12.698Z,54.45
2018-02-23T05:07:44.338Z,54.68
2018-02-23T05:08:16.014Z,54.59
2018-02-23T05:08:47.643Z,54.76
2018-02-23T05:09:19.270Z,54.65
2018-02-23T05:09:50.894Z,54.65
2018-02-23T05:10:22.519Z,54.76
2018-02-23T05:10:54.149Z,54.85
2018-02-23T05:11:25.773Z,54.67
2018-02-23T05:11:57.393Z,54.73
2018-02-23T05:12:29.022Z,54.89
2018-02-23T05:13:00.651Z,55.14
2018-02-23T05:13:32.321Z,55.17
2018-02-23T05:14:03.946Z,55.17
2018-02-23T05:14:35.574Z,55.23
2018-02-23T05:15:07.202Z,55.36
2018-02-23T05:15:38.834Z,55.62
2018-02-23T05:16:10.478Z,55.32
2018-02-23T05:16:42.130Z,55.36
2018-02-23T05:17:13.915Z,55.42
2018-02-23T05:17:45.539Z,55.43
2018-02-23T05:18:17.173Z,55.58
2018-02-23T05:18:48.858Z,55.53
2018-02-23T05:19:20.500Z,55.64
2018-02-23T05:19:52.121Z,55.59
2018-02-23T05:20:23.746Z,55.57
2018-02-23T05:20:55.370Z,55.72
2018-02-23T05:21:27.015Z,55.61
2018-02-23T05:21:58.666Z,55.69
2018-02-23T05:22:30.319Z,55.68
2018-02-23T05:23:01.942Z,55.64
2018-02-23T05:23:33.567Z,55.66
2018-02-23T05:24:05.247Z,55.71
2018-02-23T05:24:36.874Z,55.84
2018-02-23T05:25:08.498Z,56.02
2018-02-23T05:25:40.122Z,56.08
2018-02-23T05:26:11.746Z,56.30
2018-02-23T05:26:43.370Z,56.33
2018-02-23T05:27:14.995Z,56.27
2018-02-23T05:27:46.622Z,56.39
2018-02-23T05:28:18.267Z,56.31
2018-02-23T05:28:49.918Z,56.46
2018-02-23T05:29:21.613Z,56.47
2018-02-23T05:29:53.242Z,56.54
2018-02-23T05:30:24.870Z,56.43
2018-02-23T05:30:56.506Z,56.60
2018-02-23T05:31:28.142Z,56.63
2018-02-23T05:31:59.766Z,56.72
2018-02-23T05:32:31.389Z,56.69
2018-02-23T05:33:03.023Z,56.72
2018-02-23T05:33:34.658Z,56.79
2018-02-23T05:34:06.287Z,56.81
2018-02-23T05:34:37.910Z,57.08
2018-02-23T05:35:09.535Z,57.07
2018-02-23T05:35:41.162Z,57.10
2018-02-23T05:36:12.785Z,57.01
2018-02-23T05:36:44.409Z,57.01
2018-02-23T05:37:16.034Z,57.02
2018-02-23T05:37:47.657Z,57.11
2018-02-23T05:38:21.122Z,57.13
2018-02-23T05:38:52.836Z,57.06
2018-02-23T05:39:24.521Z,57.10
2018-02-23T05:39:56.146Z,57.09
2018-02-23T05:40:27.775Z,57.17
2018-02-23T05:40:59.402Z,57.22
2018-02-23T05:41:31.034Z,57.19
2018-02-23T05:42:02.659Z,57.25
2018-02-23T05:42:34.293Z,57.25
2018-02-23T05:43:05.918Z,57.20
2018-02-23T05:43:37.550Z,57.44
2018-02-23T05:44:09.178Z,57.37
2018-02-23T05:44:40.850Z,57.49
2018-02-23T05:45:12.474Z,57.45
2018-02-23T05:45:44.102Z,57.41
2018-02-23T05:46:15.726Z,57.44
2018-02-23T05:46:47.351Z,57.56
2018-02-23T05:47:19.034Z,57.37
2018-02-23T05:47:50.642Z,57.30
2018-02-23T05:48:22.266Z,57.21
2018-02-23T05:48:53.898Z,57.24
2018-02-23T05:49:25.526Z,57.35
2018-02-23T05:49:57.206Z,57.37
2018-02-23T05:50:28.827Z,57.33
2018-02-23T05:51:00.459Z,57.28
2018-02-23T05:51:32.094Z,57.37
2018-02-23T05:52:03.724Z,57.20
2018-02-23T05:52:35.355Z,57.10
2018-02-23T05:53:06.978Z,57.04
2018-02-23T05:53:38.604Z,56.99
2018-02-23T05:54:10.249Z,57.06
2018-02-23T05:54:41.879Z,57.09
2018-02-23T05:55:13.558Z,57.55
2018-02-23T05:55:45.186Z,57.05
2018-02-23T05:56:16.809Z,57.11
2018-02-23T05:56:48.440Z,57.49
2018-02-23T05:57:20.071Z,57.67
2018-02-23T05:57:51.698Z,57.33
2018-02-23T05:58:23.322Z,57.30
2018-02-23T05:58:54.946Z,57.57
2018-02-23T05:59:26.574Z,57.34
2018-02-23T05:59:58.251Z,57.30
2018-02-23T06:00:29.918Z,57.47
2018-02-23T06:01:01.550Z,57.36
2018-02-23T06:01:33.174Z,57.46
2018-02-23T06:02:04.798Z,57.22
2018-02-23T06:02:36.429Z,57.53
2018-02-23T06:03:08.058Z,57.62
2018-02-23T06:03:39.701Z,57.53
2018-02-23T06:04:11.326Z,57.39
2018-02-23T06:04:42.960Z,57.89
2018-02-23T06:05:14.595Z,57.69
2018-02-23T06:05:46.265Z,57.74
2018-02-23T06:06:17.894Z,58.14
2018-02-23T06:06:49.522Z,57.72
2018-02-23T06:07:21.150Z,57.85
2018-02-23T06:07:52.778Z,57.25
2018-02-23T06:08:24.410Z,57.55
2018-02-23T06:08:56.037Z,57.42
2018-02-23T06:09:27.659Z,57.12
2018-02-23T06:09:59.325Z,57.06
2018-02-23T06:10:30.940Z,57.06
2018-02-23T06:11:02.622Z,57.24
2018-02-23T06:11:34.250Z,56.91
2018-02-23T06:12:05.878Z,57.28
2018-02-23T06:12:37.510Z,57.08
2018-02-23T06:13:09.138Z,57.30
2018-02-23T06:13:40.782Z,57.00
2018-02-23T06:14:12.406Z,57.13
2018-02-23T06:14:44.031Z,57.02
2018-02-23T06:15:15.659Z,57.04
2018-02-23T06:15:52.946Z,56.86
2018-02-23T06:16:27.475Z,56.87
2018-02-23T06:16:59.123Z,56.77
2018-02-23T06:17:36.611Z,56.87
2018-02-23T06:18:08.242Z,56.89
2018-02-23T06:18:45.659Z,56.84
2018-02-23T06:19:22.905Z,56.80
2018-02-23T06:20:00.191Z,56.73
2018-02-23T06:20:31.814Z,57.38
2018-02-23T06:21:03.438Z,57.23
2018-02-23T06:21:35.062Z,56.99
2018-02-23T06:22:06.682Z,57.14
2018-02-23T06:22:38.317Z,57.20
2018-02-23T06:23:09.938Z,57.36
2018-02-23T06:23:41.567Z,57.17
2018-02-23T06:24:13.199Z,57.36
2018-02-23T06:24:44.831Z,57.57
2018-02-23T06:25:16.466Z,57.73
2018-02-23T06:25:48.090Z,57.84
2018-02-23T06:26:19.713Z,57.65
2018-02-23T06:26:51.390Z,57.99
2018-02-23T06:27:23.017Z,57.87
2018-02-23T06:27:54.647Z,57.74
2018-02-23T06:28:26.271Z,58.15
2018-02-23T06:28:57.894Z,57.69
2018-02-23T06:29:29.518Z,58.00
2018-02-23T06:30:01.142Z,57.88
2018-02-23T06:30:32.765Z,57.99
2018-02-23T06:31:04.439Z,57.60
2018-02-23T06:31:36.054Z,57.41
2018-02-23T06:32:07.735Z,57.41
2018-02-23T06:32:39.365Z,57.54
2018-02-23T06:33:11.002Z,57.43
2018-02-23T06:33:42.626Z,57.47
2018-02-23T06:34:14.253Z,57.35
2018-02-23T06:34:45.883Z,57.38
2018-02-23T06:35:17.506Z,57.41
2018-02-23T06:35:49.134Z,57.32
2018-02-23T06:36:20.767Z,57.45
2018-02-23T06:36:52.389Z,57.25
2018-02-23T06:37:24.072Z,57.26
2018-02-23T06:37:55.698Z,57.46
2018-02-23T06:38:27.326Z,57.46
2018-02-23T06:38:58.954Z,57.59
2018-02-23T06:39:30.582Z,57.81
2018-02-23T06:40:02.205Z,57.30
2018-02-23T06:40:33.831Z,57.65
2018-02-23T06:41:05.457Z,57.44
2018-02-23T06:41:37.078Z,57.34
2018-02-23T06:42:08.706Z,57.31
2018-02-23T06:42:40.382Z,57.47
2018-02-23T06:43:12.006Z,57.38
2018-02-23T06:43:43.636Z,57.64
2018-02-23T06:44:15.258Z,57.63
2018-02-23T06:44:46.882Z,57.63
2018-02-23T06:45:18.509Z,57.59
2018-02-23T06:45:50.138Z,57.84
2018-02-23T06:46:21.770Z,57.74
2018-02-23T06:47:10.249Z,57.73
2018-02-23T06:47:41.930Z,57.77
2018-02-23T06:48:13.585Z,57.65